Eden Prairie, MN (55344)

7:54 PM CDT on August 27, 2015 (GMT -0500)
Flying Cloud Airport | | Change Station
CLOSE
Current Station
Personal Weather Station
Location: Eden Prairie, MN
Elevation: 902 ft
Nearby Weather Stations

Elev 902 ft 44.83 °N, 93.46 °W | Updated 3 seconds ago

Clear
Clear
68.2 °F
Feels Like 68.2 °F
N
8.7
Wind Variable Wind from SE
Gusts 11.0 mph

Today
High -- | Low -- °F
--% Chance of Precip.
Yesterday
High -- | Low -- °F
Precip. -- in
6:29 AM 8:00 PM
Waxing Gibbous, 96% visible
Pressure 30.00 in
Visibility 10.0 miles
Clouds Clear
Dew Point 60 °F
Humidity 74%
Rainfall 0.00 in
Snow Depth Not available.
UV 1 out of 12
Pollen 8.80 out of 12
Air Quality Not available.
Flu Activity Not available.
METAR KFCM 272353Z 17010KT 10SM CLR 22/16 A3000 RMK AO2 SLP158 T02170156 10244 20217 55005
Pressure 30.00 in
Visibility 10.0 miles
Clouds Clear
Dew Point 60 °F
Humidity 74%
Rainfall 0.00 in
Snow Depth Not available.
UV 1 out of 12
Pollen 8.80 out of 12
Air Quality Not available.
Flu Activity Not available.
METAR KFCM 272353Z 17010KT 10SM CLR 22/16 A3000 RMK AO2 SLP158 T02170156 10244 20217 55005

10-Day Weather Forecast

×

Almanac

Astronomy

Aug. 27, 2015 Rise Set
Actual Time
Civil Twilight
Nautical Twilight
Astronomical Twilight
Moon
Length of Visible Light
Length of Day
Tomorrow will be .
, % of the Moon is Illuminated

Today's Extremes

State Highs State Lows

Community

WunderPhotos

Upload Photos

1,850,275 photos uploaded!

WunderBlogs® & News

Nearby

Air Quality

  Air Quality AQ Index Pollutant
Not available.

Snow Depth

Station Depth Elevation

Earthquake Activity

City Distance Mag. Time & Date
Minimum magnitude displayed is 2.5.

Coastal Water Temperatures

Place Temperature

Stations

Nearby Weather Stations

Station Location Temp. Windchill Dew Point Humidity Wind Precip. Elev Updated Type